LFRG 211100Z AUTO 02003KT 340V050 9999 FEW024 OVC035 05/02 Q1040 NOSIG

ElémentsDécodage
LFRG Station météo située sur l'aérodrome de DEAUVILLE Saint-Gatien
211100Z émis le 21 du mois à 11h00 UTC
AUTO Bulletin édité par un automate
02003KT vent du 020°, 03 noeuds
340V050 vent de direction variable entre 340° et 050°
9999 visibilité horizontale supérieure à 10 Km
FEW024 nuages rares (1/8 à 2/8) à 2400 pieds
OVC035 couverture nuageuse totale (8/8) à 3500 pieds
05/02 température 05°C, point de rosée 02°C
 soit une humidité relative de 81%
Q1040 la pression au niveau de la mer (QNH) est de 1040 hPa
NOSIG Pas de changement significatif prévu au cours des deux heures suivant l'heure de l'observation